sensor_id;sensor_type;location;lat;lon;timestamp;pressure;altitude;pressure_sealevel;temperature;humidity
4410;BME280;2218;51.408;7.208;2023-04-19T00:00:11;100805.09;;;19.25;41.64
4410;BME280;2218;51.408;7.208;2023-04-19T00:02:39;100793.69;;;19.25;41.76
4410;BME280;2218;51.408;7.208;2023-04-19T00:05:08;100790.19;;;19.24;41.76
4410;BME280;2218;51.408;7.208;2023-04-19T00:07:37;100785.84;;;19.23;41.84
4410;BME280;2218;51.408;7.208;2023-04-19T00:10:06;100785.00;;;19.23;41.90
4410;BME280;2218;51.408;7.208;2023-04-19T00:12:33;100791.13;;;19.23;41.78
4410;BME280;2218;51.408;7.208;2023-04-19T00:15:00;100785.84;;;19.23;41.91
4410;BME280;2218;51.408;7.208;2023-04-19T00:17:27;100789.44;;;19.22;41.86
4410;BME280;2218;51.408;7.208;2023-04-19T00:19:55;100787.72;;;19.21;41.67
4410;BME280;2218;51.408;7.208;2023-04-19T00:22:22;100781.53;;;19.22;41.87
4410;BME280;2218;51.408;7.208;2023-04-19T00:24:50;100791.31;;;19.20;41.73
4410;BME280;2218;51.408;7.208;2023-04-19T00:27:17;100786.03;;;19.20;41.91
4410;BME280;2218;51.408;7.208;2023-04-19T00:29:44;100785.19;;;19.20;41.76
4410;BME280;2218;51.408;7.208;2023-04-19T00:32:11;100778.19;;;19.19;42.01
4410;BME280;2218;51.408;7.208;2023-04-19T00:34:38;100779.03;;;19.19;42.09
4410;BME280;2218;51.408;7.208;2023-04-19T00:37:07;100781.75;;;19.18;41.99
4410;BME280;2218;51.408;7.208;2023-04-19T00:39:34;100786.19;;;19.17;42.12
4410;BME280;2218;51.408;7.208;2023-04-19T00:42:04;100787.03;;;19.18;42.19
4410;BME280;2218;51.408;7.208;2023-04-19T00:44:31;100779.22;;;19.16;42.15
4410;BME280;2218;51.408;7.208;2023-04-19T00:46:59;100778.28;;;19.17;42.04
4410;BME280;2218;51.408;7.208;2023-04-19T00:49:27;100773.09;;;19.16;42.02
4410;BME280;2218;51.408;7.208;2023-04-19T00:51:54;100774.88;;;19.15;42.34
4410;BME280;2218;51.408;7.208;2023-04-19T00:54:22;100780.16;;;19.15;42.30
4410;BME280;2218;51.408;7.208;2023-04-19T00:56:49;100781.06;;;19.14;41.97
4410;BME280;2218;51.408;7.208;2023-04-19T00:59:18;100778.41;;;19.14;42.03
4410;BME280;2218;51.408;7.208;2023-04-19T01:01:45;100775.78;;;19.14;41.95
4410;BME280;2218;51.408;7.208;2023-04-19T01:04:12;100774.94;;;19.14;42.23
4410;BME280;2218;51.408;7.208;2023-04-19T01:06:40;100772.41;;;19.12;42.06
4410;BME280;2218;51.408;7.208;2023-04-19T01:09:10;100770.59;;;19.13;42.31
4410;BME280;2218;51.408;7.208;2023-04-19T01:11:40;100760.16;;;19.11;42.44
4410;BME280;2218;51.408;7.208;2023-04-19T01:14:07;100764.50;;;19.12;42.40
4410;BME280;2218;51.408;7.208;2023-04-19T01:16:35;100762.78;;;19.11;42.33
4410;BME280;2218;51.408;7.208;2023-04-19T01:19:03;100759.31;;;19.10;42.27
4410;BME280;2218;51.408;7.208;2023-04-19T01:21:30;100758.47;;;19.10;42.24
4410;BME280;2218;51.408;7.208;2023-04-19T01:23:58;100754.97;;;19.09;42.34
4410;BME280;2218;51.408;7.208;2023-04-19T01:26:25;100761.09;;;19.10;42.44
4410;BME280;2218;51.408;7.208;2023-04-19T01:28:53;100756.72;;;19.09;42.41
4410;BME280;2218;51.408;7.208;2023-04-19T01:31:20;100751.47;;;19.09;42.58
4410;BME280;2218;51.408;7.208;2023-04-19T01:33:47;100749.75;;;19.08;42.33
4410;BME280;2218;51.408;7.208;2023-04-19T01:36:14;100754.19;;;19.07;42.38
4410;BME280;2218;51.408;7.208;2023-04-19T01:38:41;100756.81;;;19.07;42.57
4410;BME280;2218;51.408;7.208;2023-04-19T01:41:10;100751.56;;;19.07;42.43
4410;BME280;2218;51.408;7.208;2023-04-19T01:43:37;100755.97;;;19.07;42.73
4410;BME280;2218;51.408;7.208;2023-04-19T01:46:04;100757.75;;;19.06;42.37
4410;BME280;2218;51.408;7.208;2023-04-19T01:48:31;100751.63;;;19.06;42.66
4410;BME280;2218;51.408;7.208;2023-04-19T01:50:59;100746.38;;;19.06;42.67
4410;BME280;2218;51.408;7.208;2023-04-19T01:53:25;100749.94;;;19.05;42.54
4410;BME280;2218;51.408;7.208;2023-04-19T01:55:53;100749.94;;;19.05;42.60
4410;BME280;2218;51.408;7.208;2023-04-19T01:58:21;100749.06;;;19.04;42.62
4410;BME280;2218;51.408;7.208;2023-04-19T02:00:48;100747.31;;;19.05;42.86
4410;BME280;2218;51.408;7.208;2023-04-19T02:03:15;100742.94;;;19.04;42.51
4410;BME280;2218;51.408;7.208;2023-04-19T02:05:42;100748.22;;;19.04;42.65
4410;BME280;2218;51.408;7.208;2023-04-19T02:08:09;100746.50;;;19.03;42.57
4410;BME280;2218;51.408;7.208;2023-04-19T02:10:36;100742.09;;;19.03;42.58
4410;BME280;2218;51.408;7.208;2023-04-19T02:13:03;100741.25;;;19.03;42.71
4410;BME280;2218;51.408;7.208;2023-04-19T02:15:31;100741.25;;;19.03;42.58
4410;BME280;2218;51.408;7.208;2023-04-19T02:17:58;100737.75;;;19.02;42.86
4410;BME280;2218;51.408;7.208;2023-04-19T02:20:25;100744.81;;;19.02;42.83
4410;BME280;2218;51.408;7.208;2023-04-19T02:22:52;100747.44;;;19.02;42.72
4410;BME280;2218;51.408;7.208;2023-04-19T02:25:19;100743.97;;;19.01;42.87
4410;BME280;2218;51.408;7.208;2023-04-19T02:27:46;100744.81;;;19.02;42.72
4410;BME280;2218;51.408;7.208;2023-04-19T02:30:13;100749.16;;;19.03;42.54
4410;BME280;2218;51.408;7.208;2023-04-19T02:32:42;100746.50;;;19.03;42.90
4410;BME280;2218;51.408;7.208;2023-04-19T02:35:11;100750.00;;;19.03;42.69
4410;BME280;2218;51.408;7.208;2023-04-19T02:37:38;100741.25;;;19.03;42.46
4410;BME280;2218;51.408;7.208;2023-04-19T02:40:07;100747.38;;;19.03;42.63
4410;BME280;2218;51.408;7.208;2023-04-19T02:42:34;100738.53;;;19.04;42.69
4410;BME280;2218;51.408;7.208;2023-04-19T02:45:02;100735.03;;;19.04;42.81
4410;BME280;2218;51.408;7.208;2023-04-19T02:47:29;100742.03;;;19.05;42.79
4410;BME280;2218;51.408;7.208;2023-04-19T02:49:58;100734.13;;;19.05;42.81
4410;BME280;2218;51.408;7.208;2023-04-19T02:52:25;100735.84;;;19.06;42.81
4410;BME280;2218;51.408;7.208;2023-04-19T02:54:53;100735.03;;;19.04;42.79
4410;BME280;2218;51.408;7.208;2023-04-19T02:57:20;100734.13;;;19.05;42.61
4410;BME280;2218;51.408;7.208;2023-04-19T02:59:47;100734.97;;;19.05;42.85
4410;BME280;2218;51.408;7.208;2023-04-19T03:02:14;100731.50;;;19.05;42.76
4410;BME280;2218;51.408;7.208;2023-04-19T03:04:41;100732.34;;;19.05;42.89
4410;BME280;2218;51.408;7.208;2023-04-19T03:07:10;100731.50;;;19.05;42.93
4410;BME280;2218;51.408;7.208;2023-04-19T03:09:38;100735.84;;;19.06;42.80
4410;BME280;2218;51.408;7.208;2023-04-19T03:12:07;100736.75;;;19.05;42.63
4410;BME280;2218;51.408;7.208;2023-04-19T03:14:34;100735.84;;;19.06;42.71
4410;BME280;2218;51.408;7.208;2023-04-19T03:17:01;100727.94;;;19.06;42.71
4410;BME280;2218;51.408;7.208;2023-04-19T03:19:29;100728.78;;;19.06;42.54
4410;BME280;2218;51.408;7.208;2023-04-19T03:21:56;100731.41;;;19.06;42.86
4410;BME280;2218;51.408;7.208;2023-04-19T03:24:28;100727.00;;;19.07;42.52
4410;BME280;2218;51.408;7.208;2023-04-19T03:26:58;100725.28;;;19.06;42.80
4410;BME280;2218;51.408;7.208;2023-04-19T03:29:28;100733.19;;;19.06;42.58
4410;BME280;2218;51.408;7.208;2023-04-19T03:32:00;100731.41;;;19.06;42.58
4410;BME280;2218;51.408;7.208;2023-04-19T03:34:28;100735.84;;;19.06;42.68
4410;BME280;2218;51.408;7.208;2023-04-19T03:36:55;100728.88;;;19.05;42.70
4410;BME280;2218;51.408;7.208;2023-04-19T03:39:23;100731.41;;;19.06;42.50
4410;BME280;2218;51.408;7.208;2023-04-19T03:41:56;100723.50;;;19.06;42.57
4410;BME280;2218;51.408;7.208;2023-04-19T03:44:33;100727.94;;;19.06;42.55
4410;BME280;2218;51.408;7.208;2023-04-19T03:47:03;100720.03;;;19.06;42.55
4410;BME280;2218;51.408;7.208;2023-04-19T03:49:33;100713.81;;;19.07;42.73
4410;BME280;2218;51.408;7.208;2023-04-19T03:52:03;100711.19;;;19.07;42.73
4410;BME280;2218;51.408;7.208;2023-04-19T03:54:32;100715.59;;;19.06;42.64
4410;BME280;2218;51.408;7.208;2023-04-19T03:57:01;100709.47;;;19.06;42.47
4410;BME280;2218;51.408;7.208;2023-04-19T03:59:29;100723.59;;;19.05;42.80
4410;BME280;2218;51.408;7.208;2023-04-19T04:01:57;100720.03;;;19.06;42.79
4410;BME280;2218;51.408;7.208;2023-04-19T04:04:24;100728.78;;;19.06;42.47
4410;BME280;2218;51.408;7.208;2023-04-19T04:06:51;100725.28;;;19.06;42.66
4410;BME280;2218;51.408;7.208;2023-04-19T04:09:18;100731.41;;;19.06;42.34
4410;BME280;2218;51.408;7.208;2023-04-19T04:11:45;100732.25;;;19.07;42.25
4410;BME280;2218;51.408;7.208;2023-04-19T04:14:13;100732.16;;;19.08;42.17
4410;BME280;2218;51.408;7.208;2023-04-19T04:16:40;100738.22;;;19.10;42.39
4410;BME280;2218;51.408;7.208;2023-04-19T04:19:07;100742.47;;;19.13;42.39
4410;BME280;2218;51.408;7.208;2023-04-19T04:21:38;100740.44;;;19.18;42.28
4410;BME280;2218;51.408;7.208;2023-04-19T04:24:06;100742.13;;;19.19;42.08
4410;BME280;2218;51.408;7.208;2023-04-19T04:26:52;100744.63;;;19.22;41.99
4410;BME280;2218;51.408;7.208;2023-04-19T04:29:24;100743.63;;;19.25;42.07
4410;BME280;2218;51.408;7.208;2023-04-19T04:31:54;100746.09;;;19.28;41.99
4410;BME280;2218;51.408;7.208;2023-04-19T04:34:27;100745.09;;;19.30;41.73
4410;BME280;2218;51.408;7.208;2023-04-19T04:37:02;100744.16;;;19.31;41.73
4410;BME280;2218;51.408;7.208;2023-04-19T04:39:30;100749.31;;;19.33;41.79
4410;BME280;2218;51.408;7.208;2023-04-19T04:42:01;100752.75;;;19.35;41.40
4410;BME280;2218;51.408;7.208;2023-04-19T04:44:29;100748.31;;;19.35;41.60
4410;BME280;2218;51.408;7.208;2023-04-19T04:46:56;100749.19;;;19.36;41.30
4410;BME280;2218;51.408;7.208;2023-04-19T04:49:26;100742.03;;;19.38;41.41
4410;BME280;2218;51.408;7.208;2023-04-19T04:51:53;100757.69;;;19.41;41.15
4410;BME280;2218;51.408;7.208;2023-04-19T04:54:21;100750.63;;;19.42;41.46
4410;BME280;2218;51.408;7.208;2023-04-19T04:56:48;100741.69;;;19.44;41.29
4410;BME280;2218;51.408;7.208;2023-04-19T04:59:15;100747.84;;;19.45;41.16
4410;BME280;2218;51.408;7.208;2023-04-19T05:01:46;100744.25;;;19.46;41.45
4410;BME280;2218;51.408;7.208;2023-04-19T05:04:14;100743.31;;;19.47;41.11
4410;BME280;2218;51.408;7.208;2023-04-19T05:06:41;100745.03;;;19.48;40.79
4410;BME280;2218;51.408;7.208;2023-04-19T05:09:10;100744.09;;;19.49;40.94
4410;BME280;2218;51.408;7.208;2023-04-19T05:11:37;100745.81;;;19.50;40.86
4410;BME280;2218;51.408;7.208;2023-04-19T05:14:04;100743.16;;;19.50;40.80
4410;BME280;2218;51.408;7.208;2023-04-19T05:16:32;100746.56;;;19.52;41.00
4410;BME280;2218;51.408;7.208;2023-04-19T05:19:01;100745.63;;;19.53;40.75
4410;BME280;2218;51.408;7.208;2023-04-19T05:21:32;100742.94;;;19.54;40.93
4410;BME280;2218;51.408;7.208;2023-04-19T05:24:01;100742.84;;;19.56;40.67
4410;BME280;2218;51.408;7.208;2023-04-19T05:26:30;100748.00;;;19.57;40.62
4410;BME280;2218;51.408;7.208;2023-04-19T05:28:58;100742.75;;;19.57;40.60
4410;BME280;2218;51.408;7.208;2023-04-19T05:31:35;100743.56;;;19.59;40.83
4410;BME280;2218;51.408;7.208;2023-04-19T05:34:17;100740.81;;;19.61;40.50
4410;BME280;2218;51.408;7.208;2023-04-19T05:36:44;100738.94;;;19.63;40.59
4410;BME280;2218;51.408;7.208;2023-04-19T05:39:11;100741.59;;;19.63;40.49
4410;BME280;2218;51.408;7.208;2023-04-19T05:41:38;100747.66;;;19.65;40.51
4410;BME280;2218;51.408;7.208;2023-04-19T05:44:05;100750.09;;;19.68;40.64
4410;BME280;2218;51.408;7.208;2023-04-19T05:46:33;100743.03;;;19.69;40.45
4410;BME280;2218;51.408;7.208;2023-04-19T05:49:01;100748.91;;;19.74;40.50
4410;BME280;2218;51.408;7.208;2023-04-19T05:52:00;100745.84;;;19.81;40.41
4410;BME280;2218;51.408;7.208;2023-04-19T05:54:49;100745.00;;;19.81;40.56
4410;BME280;2218;51.408;7.208;2023-04-19T05:57:16;100747.56;;;19.82;40.39
4410;BME280;2218;51.408;7.208;2023-04-19T05:59:43;100752.84;;;19.82;40.30
4410;BME280;2218;51.408;7.208;2023-04-19T06:02:12;100750.78;;;19.87;40.18
4410;BME280;2218;51.408;7.208;2023-04-19T06:04:40;100752.16;;;19.95;40.18
4410;BME280;2218;51.408;7.208;2023-04-19T06:07:08;100747.66;;;19.97;40.29
4410;BME280;2218;51.408;7.208;2023-04-19T06:09:38;100739.63;;;19.98;40.08
4410;BME280;2218;51.408;7.208;2023-04-19T06:12:06;100735.03;;;20.02;40.25
4410;BME280;2218;51.408;7.208;2023-04-19T06:14:33;100746.03;;;20.10;40.03
4410;BME280;2218;51.408;7.208;2023-04-19T06:17:00;100736.06;;;20.15;40.00
4410;BME280;2218;51.408;7.208;2023-04-19T06:19:27;100741.94;;;20.20;39.98
4410;BME280;2218;51.408;7.208;2023-04-19T06:21:54;100731.19;;;20.23;40.08
4410;BME280;2218;51.408;7.208;2023-04-19T06:24:22;100732.72;;;20.27;40.12
4410;BME280;2218;51.408;7.208;2023-04-19T06:26:49;100741.22;;;20.32;39.99
4410;BME280;2218;51.408;7.208;2023-04-19T06:29:16;100740.22;;;20.35;40.19
4410;BME280;2218;51.408;7.208;2023-04-19T06:31:45;100742.59;;;20.39;39.94
4410;BME280;2218;51.408;7.208;2023-04-19T06:34:11;100745.97;;;20.42;39.98
4410;BME280;2218;51.408;7.208;2023-04-19T06:36:38;100743.06;;;20.46;40.16
4410;BME280;2218;51.408;7.208;2023-04-19T06:39:06;100747.38;;;20.49;40.14
4410;BME280;2218;51.408;7.208;2023-04-19T06:41:34;100739.34;;;20.50;39.96
4410;BME280;2218;51.408;7.208;2023-04-19T06:44:01;100738.31;;;20.53;39.93
4410;BME280;2218;51.408;7.208;2023-04-19T06:46:28;100733.81;;;20.55;39.79
4410;BME280;2218;51.408;7.208;2023-04-19T06:48:55;100743.25;;;20.59;39.13
4410;BME280;2218;51.408;7.208;2023-04-19T06:51:22;100735.22;;;20.60;38.76
4410;BME280;2218;51.408;7.208;2023-04-19T06:53:49;100737.78;;;20.62;38.33
4410;BME280;2218;51.408;7.208;2023-04-19T06:56:16;100745.69;;;20.62;37.88
4410;BME280;2218;51.408;7.208;2023-04-19T06:58:44;100736.06;;;20.61;37.51
4410;BME280;2218;51.408;7.208;2023-04-19T07:01:11;100721.06;;;20.61;37.09
4410;BME280;2218;51.408;7.208;2023-04-19T07:03:38;100733.16;;;20.65;37.13
4410;BME280;2218;51.408;7.208;2023-04-19T07:06:06;100729.41;;;20.70;36.50
4410;BME280;2218;51.408;7.208;2023-04-19T07:08:33;100733.66;;;20.72;36.39
4410;BME280;2218;51.408;7.208;2023-04-19T07:11:00;100722.91;;;20.75;35.98
4410;BME280;2218;51.408;7.208;2023-04-19T07:13:27;100731.56;;;20.77;35.56
4410;BME280;2218;51.408;7.208;2023-04-19T07:15:55;100731.56;;;20.77;35.28
4410;BME280;2218;51.408;7.208;2023-04-19T07:18:22;100726.28;;;20.77;35.19
4410;BME280;2218;51.408;7.208;2023-04-19T07:20:49;100724.44;;;20.79;34.81
4410;BME280;2218;51.408;7.208;2023-04-19T07:23:16;100730.56;;;20.80;34.38
4410;BME280;2218;51.408;7.208;2023-04-19T07:25:44;100728.56;;;20.83;34.60
4410;BME280;2218;51.408;7.208;2023-04-19T07:28:11;100731.03;;;20.86;34.64
4410;BME280;2218;51.408;7.208;2023-04-19T07:30:38;100719.63;;;20.86;34.45
4410;BME280;2218;51.408;7.208;2023-04-19T07:33:06;100723.88;;;20.88;33.99
4410;BME280;2218;51.408;7.208;2023-04-19T07:35:34;100727.44;;;20.87;33.83
4410;BME280;2218;51.408;7.208;2023-04-19T07:38:01;100732.84;;;20.86;33.69
4410;BME280;2218;51.408;7.208;2023-04-19T07:40:28;100723.00;;;20.88;33.41
4410;BME280;2218;51.408;7.208;2023-04-19T07:42:55;100727.38;;;20.89;33.15
4410;BME280;2218;51.408;7.208;2023-04-19T07:45:22;100718.59;;;20.88;33.32
4410;BME280;2218;51.408;7.208;2023-04-19T07:47:49;100722.09;;;20.89;32.38
4410;BME280;2218;51.408;7.208;2023-04-19T07:50:17;100714.16;;;20.89;32.99
4410;BME280;2218;51.408;7.208;2023-04-19T07:52:44;100724.63;;;20.90;32.95
4410;BME280;2218;51.408;7.208;2023-04-19T07:55:11;100711.41;;;20.90;32.97
4410;BME280;2218;51.408;7.208;2023-04-19T07:57:38;100716.59;;;20.92;32.95
4410;BME280;2218;51.408;7.208;2023-04-19T08:00:07;100712.16;;;20.92;33.04
4410;BME280;2218;51.408;7.208;2023-04-19T08:02:42;100713.97;;;20.92;33.37
4410;BME280;2218;51.408;7.208;2023-04-19T08:05:10;100717.44;;;20.92;33.52
4410;BME280;2218;51.408;7.208;2023-04-19T08:07:39;100716.59;;;20.92;33.51
4410;BME280;2218;51.408;7.208;2023-04-19T08:10:07;100717.56;;;20.91;33.71
4410;BME280;2218;51.408;7.208;2023-04-19T08:12:35;100716.69;;;20.90;33.99
4410;BME280;2218;51.408;7.208;2023-04-19T08:15:02;100709.72;;;20.89;34.13
4410;BME280;2218;51.408;7.208;2023-04-19T08:17:29;100711.41;;;20.90;33.92
4410;BME280;2218;51.408;7.208;2023-04-19T08:19:56;100709.72;;;20.89;34.37
4410;BME280;2218;51.408;7.208;2023-04-19T08:22:24;100708.03;;;20.88;34.20
4410;BME280;2218;51.408;7.208;2023-04-19T08:24:52;100712.44;;;20.88;34.56
4410;BME280;2218;51.408;7.208;2023-04-19T08:27:20;100717.72;;;20.88;34.71
4410;BME280;2218;51.408;7.208;2023-04-19T08:29:47;100718.66;;;20.87;34.63
4410;BME280;2218;51.408;7.208;2023-04-19T08:32:14;100724.81;;;20.87;34.60
4410;BME280;2218;51.408;7.208;2023-04-19T08:34:41;100720.47;;;20.86;34.89
4410;BME280;2218;51.408;7.208;2023-04-19T08:37:08;100717.06;;;20.84;34.90
4410;BME280;2218;51.408;7.208;2023-04-19T08:39:35;100736.50;;;20.83;34.93
4410;BME280;2218;51.408;7.208;2023-04-19T08:42:07;100726.81;;;20.84;34.84
4410;BME280;2218;51.408;7.208;2023-04-19T08:44:36;100734.78;;;20.82;34.93
4410;BME280;2218;51.408;7.208;2023-04-19T08:47:04;100735.75;;;20.81;34.99
4410;BME280;2218;51.408;7.208;2023-04-19T08:49:34;100733.19;;;20.80;34.83
4410;BME280;2218;51.408;7.208;2023-04-19T08:52:02;100730.56;;;20.80;35.26
4410;BME280;2218;51.408;7.208;2023-04-19T08:54:30;100727.13;;;20.78;35.02
4410;BME280;2218;51.408;7.208;2023-04-19T08:56:58;100731.56;;;20.77;35.06
4410;BME280;2218;51.408;7.208;2023-04-19T08:59:28;100728.94;;;20.77;35.34
4410;BME280;2218;51.408;7.208;2023-04-19T09:01:55;100735.28;;;20.75;35.07
4410;BME280;2218;51.408;7.208;2023-04-19T09:04:24;100736.13;;;20.75;34.99
4410;BME280;2218;51.408;7.208;2023-04-19T09:06:52;100730.94;;;20.74;35.12
4410;BME280;2218;51.408;7.208;2023-04-19T09:09:22;100724.78;;;20.73;35.19
4410;BME280;2218;51.408;7.208;2023-04-19T09:11:49;100723.06;;;20.72;35.18
4410;BME280;2218;51.408;7.208;2023-04-19T09:14:19;100716.09;;;20.71;35.13
4410;BME280;2218;51.408;7.208;2023-04-19T09:16:48;100717.06;;;20.70;35.08
4410;BME280;2218;51.408;7.208;2023-04-19T09:19:17;100720.53;;;20.71;35.33
4410;BME280;2218;51.408;7.208;2023-04-19T09:21:44;100716.19;;;20.70;35.47
4410;BME280;2218;51.408;7.208;2023-04-19T09:24:12;100713.56;;;20.70;35.55
4410;BME280;2218;51.408;7.208;2023-04-19T09:26:52;100717.16;;;20.69;35.41
4410;BME280;2218;51.408;7.208;2023-04-19T09:29:19;100716.28;;;20.68;35.42
4410;BME280;2218;51.408;7.208;2023-04-19T09:31:58;100711.00;;;20.68;35.54
4410;BME280;2218;51.408;7.208;2023-04-19T09:34:25;100704.97;;;20.66;35.47
4410;BME280;2218;51.408;7.208;2023-04-19T09:36:54;100705.91;;;20.65;35.49
4410;BME280;2218;51.408;7.208;2023-04-19T09:39:30;100708.44;;;20.67;35.40
4410;BME280;2218;51.408;7.208;2023-04-19T09:41:57;100706.66;;;20.67;35.30
4410;BME280;2218;51.408;7.208;2023-04-19T09:44:24;100696.94;;;20.68;35.49
4410;BME280;2218;51.408;7.208;2023-04-19T09:46:50;100688.09;;;20.69;35.39
4410;BME280;2218;51.408;7.208;2023-04-19T09:49:21;100695.06;;;20.70;35.29
4410;BME280;2218;51.408;7.208;2023-04-19T09:51:52;100687.03;;;20.71;35.39
4410;BME280;2218;51.408;7.208;2023-04-19T09:54:22;100686.09;;;20.72;35.53
4410;BME280;2218;51.408;7.208;2023-04-19T09:56:50;100682.50;;;20.73;35.66
4410;BME280;2218;51.408;7.208;2023-04-19T09:59:18;100689.50;;;20.74;35.77
4410;BME280;2218;51.408;7.208;2023-04-19T10:01:47;100695.66;;;20.75;35.63
4410;BME280;2218;51.408;7.208;2023-04-19T10:04:19;100686.88;;;20.74;35.77
4410;BME280;2218;51.408;7.208;2023-04-19T10:06:48;100675.34;;;20.75;35.89
4410;BME280;2218;51.408;7.208;2023-04-19T10:09:16;100678.00;;;20.75;35.90
4410;BME280;2218;51.408;7.208;2023-04-19T10:11:49;100687.63;;;20.76;35.63
4410;BME280;2218;51.408;7.208;2023-04-19T10:14:22;100682.34;;;20.76;35.88
4410;BME280;2218;51.408;7.208;2023-04-19T10:16:50;100695.53;;;20.76;35.91
4410;BME280;2218;51.408;7.208;2023-04-19T10:19:20;100676.09;;;20.77;35.82
4410;BME280;2218;51.408;7.208;2023-04-19T10:21:49;100682.34;;;20.76;35.92
4410;BME280;2218;51.408;7.208;2023-04-19T10:24:17;100675.25;;;20.77;35.97
4410;BME280;2218;51.408;7.208;2023-04-19T10:27:09;100673.47;;;20.77;35.87
4410;BME280;2218;51.408;7.208;2023-04-19T10:29:59;100671.66;;;20.78;36.33
4410;BME280;2218;51.408;7.208;2023-04-19T10:32:29;100672.59;;;20.77;35.99
4410;BME280;2218;51.408;7.208;2023-04-19T10:35:07;100673.47;;;20.77;36.21
4410;BME280;2218;51.408;7.208;2023-04-19T10:37:39;100658.44;;;20.78;36.07
4410;BME280;2218;51.408;7.208;2023-04-19T10:40:08;100669.97;;;20.77;36.05
4410;BME280;2218;51.408;7.208;2023-04-19T10:43:15;100660.25;;;20.77;36.11
4410;BME280;2218;51.408;7.208;2023-04-19T10:45:43;100654.97;;;20.77;36.11
4410;BME280;2218;51.408;7.208;2023-04-19T10:48:39;100642.59;;;20.78;36.16
4410;BME280;2218;51.408;7.208;2023-04-19T10:51:15;100640.91;;;20.77;36.28
4410;BME280;2218;51.408;7.208;2023-04-19T10:53:52;100643.44;;;20.78;36.34
4410;BME280;2218;51.408;7.208;2023-04-19T10:59:17;100636.47;;;20.77;36.23
4410;BME280;2218;51.408;7.208;2023-04-19T11:01:50;100633.81;;;20.77;36.29
4410;BME280;2218;51.408;7.208;2023-04-19T11:04:21;100620.63;;;20.77;36.45
4410;BME280;2218;51.408;7.208;2023-04-19T11:06:59;100632.03;;;20.78;36.29
4410;BME280;2218;51.408;7.208;2023-04-19T11:09:30;100641.75;;;20.77;36.53
4410;BME280;2218;51.408;7.208;2023-04-19T11:12:01;100634.69;;;20.78;36.60
4410;BME280;2218;51.408;7.208;2023-04-19T11:14:31;100631.19;;;20.77;36.70
4410;BME280;2218;51.408;7.208;2023-04-19T11:17:01;100610.91;;;20.78;36.50
4410;BME280;2218;51.408;7.208;2023-04-19T11:19:28;100606.47;;;20.78;36.44
4410;BME280;2218;51.408;7.208;2023-04-19T11:21:58;100601.19;;;20.78;36.52
4410;BME280;2218;51.408;7.208;2023-04-19T11:24:25;100622.31;;;20.78;36.64
4410;BME280;2218;51.408;7.208;2023-04-19T11:26:55;100601.19;;;20.78;36.63
4410;BME280;2218;51.408;7.208;2023-04-19T11:29:23;100601.19;;;20.78;36.93
4410;BME280;2218;51.408;7.208;2023-04-19T11:31:50;100595.91;;;20.78;36.64
4410;BME280;2218;51.408;7.208;2023-04-19T11:34:22;100590.63;;;20.78;36.56
4410;BME280;2218;51.408;7.208;2023-04-19T11:36:50;100595.91;;;20.78;36.85
4410;BME280;2218;51.408;7.208;2023-04-19T11:39:19;100594.13;;;20.79;36.74
4410;BME280;2218;51.408;7.208;2023-04-19T11:41:47;100590.53;;;20.80;36.86
4410;BME280;2218;51.408;7.208;2023-04-19T11:44:15;100580.91;;;20.79;36.85
4410;BME280;2218;51.408;7.208;2023-04-19T11:46:58;100575.63;;;20.79;36.84
4410;BME280;2218;51.408;7.208;2023-04-19T11:49:28;100577.31;;;20.80;36.92
4410;BME280;2218;51.408;7.208;2023-04-19T11:51:57;100576.47;;;20.79;37.01
4410;BME280;2218;51.408;7.208;2023-04-19T11:54:27;100575.53;;;20.80;36.68
4410;BME280;2218;51.408;7.208;2023-04-19T11:57:03;100571.19;;;20.79;36.89
4410;BME280;2218;51.408;7.208;2023-04-19T11:59:33;100560.53;;;20.81;36.85
4410;BME280;2218;51.408;7.208;2023-04-19T12:02:08;100555.34;;;20.79;36.99
4410;BME280;2218;51.408;7.208;2023-04-19T12:04:36;100554.41;;;20.80;36.91
4410;BME280;2218;51.408;7.208;2023-04-19T12:07:05;100551.75;;;20.80;36.85
4410;BME280;2218;51.408;7.208;2023-04-19T12:09:35;100540.16;;;20.54;31.50
4410;BME280;2218;51.408;7.208;2023-04-19T12:12:03;100528.88;;;20.22;30.99
4410;BME280;2218;51.408;7.208;2023-04-19T12:14:31;100517.66;;;20.19;29.60
4410;BME280;2218;51.408;7.208;2023-04-19T12:17:12;100519.06;;;20.10;29.30
4410;BME280;2218;51.408;7.208;2023-04-19T12:19:44;100507.38;;;20.28;30.32
4410;BME280;2218;51.408;7.208;2023-04-19T12:22:14;100516.25;;;20.27;29.24
4410;BME280;2218;51.408;7.208;2023-04-19T12:24:42;100519.19;;;20.37;30.54
4410;BME280;2218;51.408;7.208;2023-04-19T12:27:10;100512.03;;;20.39;29.56
4410;BME280;2218;51.408;7.208;2023-04-19T12:29:38;100513.63;;;20.42;30.49
4410;BME280;2218;51.408;7.208;2023-04-19T12:32:05;100509.28;;;20.40;27.90
4410;BME280;2218;51.408;7.208;2023-04-19T12:34:32;100508.53;;;20.38;28.69
4410;BME280;2218;51.408;7.208;2023-04-19T12:37:00;100515.31;;;20.43;28.24
4410;BME280;2218;51.408;7.208;2023-04-19T12:39:28;100506.25;;;20.18;27.09
4410;BME280;2218;51.408;7.208;2023-04-19T12:41:56;100518.31;;;20.08;27.19
4410;BME280;2218;51.408;7.208;2023-04-19T12:44:23;100528.81;;;19.79;27.07
4410;BME280;2218;51.408;7.208;2023-04-19T12:46:50;100522.66;;;19.79;27.30
4410;BME280;2218;51.408;7.208;2023-04-19T12:49:22;100513.19;;;19.91;28.58
4410;BME280;2218;51.408;7.208;2023-04-19T12:51:48;100502.13;;;19.84;27.35
4410;BME280;2218;51.408;7.208;2023-04-19T12:54:15;100492.56;;;19.97;28.78
4410;BME280;2218;51.408;7.208;2023-04-19T12:56:42;100493.53;;;20.10;29.38
4410;BME280;2218;51.408;7.208;2023-04-19T12:59:11;100500.41;;;20.13;28.31
4410;BME280;2218;51.408;7.208;2023-04-19T13:01:37;100512.56;;;20.16;27.02
4410;BME280;2218;51.408;7.208;2023-04-19T13:04:04;100485.25;;;20.17;26.98
4410;BME280;2218;51.408;7.208;2023-04-19T13:06:36;100501.53;;;20.23;27.23
4410;BME280;2218;51.408;7.208;2023-04-19T13:09:04;100501.47;;;20.25;26.92
4410;BME280;2218;51.408;7.208;2023-04-19T13:11:31;100487.22;;;20.27;27.32
4410;BME280;2218;51.408;7.208;2023-04-19T13:13:58;100471.19;;;20.30;26.66
4410;BME280;2218;51.408;7.208;2023-04-19T13:16:26;100481.38;;;20.22;26.12
4410;BME280;2218;51.408;7.208;2023-04-19T13:18:53;100476.00;;;20.24;25.78
4410;BME280;2218;51.408;7.208;2023-04-19T13:21:20;100471.75;;;20.07;25.45